Mar Caribe Primero — EA6222 — position and weather

sailwx.info

Track history (hours):
 
Tides and Currents Weather Stations Pressure Air Temp Water Temp Dewpoint Dewpoint Depression Visibility Wind Speed Wind Dir Waves Ship Positions

Mar Caribe Primero

Last reported at 2018-Mar-09 11:13 UTC. Time now 2018-Apr-26 02:06 UTC.
Position N 43°26' W 003°27'.
Warning: this ship's position is 47 days out of date.

Length 20 m.

Type: Fishing. MMSI: 224073630.

Date/timePositionNaut miles runAvg speedWind from/ knotsBaromVisibWave heightAir tempDewpointWater temp
2018-Mar-09 11:13N 43°26' W 003°27'1 4.7
2018-Mar-09 11:00N 43°26' W 003°26'7 5.6
2018-Mar-09 09:50N 43°29' W 003°19'0 1.2
2018-Mar-09 09:31N 43°29' W 003°19'0 0.9
2018-Mar-09 08:59N 43°29' W 003°19'0 1.0
2018-Mar-09 08:30N 43°28' W 003°19'1 2.2
2018-Mar-09 07:56N 43°27' W 003°18'3 6.0
2018-Mar-09 07:30N 43°26' W 003°15'1 1.6
2018-Mar-09 07:00N 43°27' W 003°16'0 0.9
2018-Mar-09 06:30N 43°27' W 003°15'0 0.8
2018-Mar-09 06:00N 43°27' W 003°16'  
2018-Mar-05 14:16N 43°26' W 003°27'1 0.4
2018-Mar-05 12:16N 43°26' W 003°28'1 4.5
2018-Mar-05 12:00N 43°26' W 003°26'5 5.3
2018-Mar-05 11:08N 43°29' W 003°21'1 4.0
2018-Mar-05 10:54N 43°29' W 003°20'1 3.3
2018-Mar-05 10:30N 43°29' W 003°18'2 5.0
2018-Mar-05 10:01N 43°29' W 003°15'8 1.8
2018-Mar-05 05:45N 43°27' W 003°25'1 5.8
2018-Mar-05 05:31N 43°26' W 003°27'  
Track history (hours):
 
Tides and Currents Weather Stations Pressure Air Temp Water Temp Dewpoint Dewpoint Depression Visibility Wind Speed Wind Dir Waves Ship Positions

Mar Caribe Primero

Last reported at 2018-Mar-09 11:13 UTC. Time now 2018-Apr-26 02:06 UTC.
Position N 43°26' W 003°27'.
Warning: this ship's position is 47 days out of date.

Length 20 m.

Type: Fishing. MMSI: 224073630.

Date/timePositionNaut miles runAvg speedWind from/ knotsBaromVisibWave heightAir tempDewpointWater temp
2018-Mar-09 11:13N 43°26' W 003°27'1 4.7
2018-Mar-09 11:00N 43°26' W 003°26'7 5.6
2018-Mar-09 09:50N 43°29' W 003°19'0 1.2
2018-Mar-09 09:31N 43°29' W 003°19'0 0.9
2018-Mar-09 08:59N 43°29' W 003°19'0 1.0
2018-Mar-09 08:30N 43°28' W 003°19'1 2.2
2018-Mar-09 07:56N 43°27' W 003°18'3 6.0
2018-Mar-09 07:30N 43°26' W 003°15'1 1.6
2018-Mar-09 07:00N 43°27' W 003°16'0 0.9
2018-Mar-09 06:30N 43°27' W 003°15'0 0.8
2018-Mar-09 06:00N 43°27' W 003°16'  
2018-Mar-05 14:16N 43°26' W 003°27'1 0.4
2018-Mar-05 12:16N 43°26' W 003°28'1 4.5
2018-Mar-05 12:00N 43°26' W 003°26'5 5.3
2018-Mar-05 11:08N 43°29' W 003°21'1 4.0
2018-Mar-05 10:54N 43°29' W 003°20'1 3.3
2018-Mar-05 10:30N 43°29' W 003°18'2 5.0
2018-Mar-05 10:01N 43°29' W 003°15'8 1.8
2018-Mar-05 05:45N 43°27' W 003°25'1 5.8
2018-Mar-05 05:31N 43°26' W 003°27'  

Dump ship's entire track history